createdAt,value
2019-04-25T00:00:21.539Z,0.00
2019-04-25T00:01:21.663Z,0.00
2019-04-25T00:02:21.536Z,0.00
2019-04-25T00:03:22.298Z,0.00
2019-04-25T00:04:21.616Z,0.00
2019-04-25T00:05:21.530Z,0.00
2019-04-25T00:06:22.957Z,0.00
2019-04-25T00:07:21.732Z,0.00
2019-04-25T00:08:21.564Z,0.00
2019-04-25T00:09:21.935Z,0.00
2019-04-25T00:10:22.059Z,0.00
2019-04-25T00:11:21.619Z,0.00
2019-04-25T00:12:22.264Z,0.00
2019-04-25T00:13:21.848Z,0.00
2019-04-25T00:14:22.599Z,0.00
2019-04-25T00:15:22.378Z,0.00
2019-04-25T00:16:21.643Z,0.00
2019-04-25T00:17:21.522Z,0.00
2019-04-25T00:18:22.078Z,0.00
2019-04-25T00:19:21.950Z,0.00
2019-04-25T00:20:21.506Z,0.00
2019-04-25T00:21:21.933Z,0.00
2019-04-25T00:22:21.697Z,0.00
2019-04-25T00:23:21.710Z,0.00
2019-04-25T00:24:21.889Z,0.00
2019-04-25T00:25:21.859Z,0.00
2019-04-25T00:26:21.499Z,0.00
2019-04-25T00:27:21.634Z,0.00
2019-04-25T00:28:21.711Z,0.00
2019-04-25T00:29:22.063Z,0.00
2019-04-25T00:30:22.570Z,0.00
2019-04-25T00:31:22.061Z,0.00
2019-04-25T00:32:21.708Z,0.00
2019-04-25T00:33:21.632Z,0.00
2019-04-25T00:34:21.854Z,0.00
2019-04-25T00:35:21.710Z,0.00
2019-04-25T00:36:21.777Z,0.00
2019-04-25T00:37:22.551Z,0.00
2019-04-25T00:38:22.195Z,0.00
2019-04-25T00:39:21.791Z,0.00
2019-04-25T00:40:21.980Z,0.00
2019-04-25T00:41:21.490Z,0.00
2019-04-25T00:42:23.116Z,0.00
2019-04-25T00:43:21.563Z,0.00
2019-04-25T00:44:21.957Z,0.00
2019-04-25T00:45:22.336Z,0.00
2019-04-25T00:46:22.547Z,0.00
2019-04-25T00:47:21.659Z,0.00
2019-04-25T00:48:22.310Z,0.00
2019-04-25T00:49:22.059Z,0.00
2019-04-25T00:50:21.902Z,0.00
2019-04-25T00:51:21.833Z,0.00
2019-04-25T00:52:22.797Z,0.00
2019-04-25T00:53:21.458Z,0.00
2019-04-25T00:54:22.689Z,0.00
2019-04-25T00:55:28.666Z,0.00
2019-04-25T00:56:22.400Z,0.00
2019-04-25T00:57:22.039Z,0.00
2019-04-25T00:58:21.528Z,0.00
2019-04-25T00:59:22.131Z,0.00
2019-04-25T01:00:21.676Z,0.00
2019-04-25T01:01:21.837Z,0.00
2019-04-25T01:02:21.556Z,0.00
2019-04-25T01:03:21.550Z,0.00
2019-04-25T01:04:21.828Z,0.00
2019-04-25T01:05:21.669Z,0.00
2019-04-25T01:06:22.035Z,0.00
2019-04-25T01:07:22.392Z,0.00
2019-04-25T01:08:21.996Z,0.00
2019-04-25T01:09:22.237Z,0.00
2019-04-25T01:10:22.978Z,0.00
2019-04-25T01:11:21.572Z,0.00
2019-04-25T01:12:21.635Z,0.00
2019-04-25T01:13:22.315Z,0.00
2019-04-25T01:14:21.792Z,0.00
2019-04-25T01:15:21.499Z,0.00
2019-04-25T01:16:22.045Z,0.00
2019-04-25T01:17:22.886Z,0.00
2019-04-25T01:18:23.044Z,0.00
2019-04-25T01:19:21.422Z,0.00
2019-04-25T01:20:21.421Z,0.00
2019-04-25T01:21:21.423Z,0.00
2019-04-25T01:22:21.415Z,0.00
2019-04-25T01:23:21.419Z,0.00
2019-04-25T01:24:21.422Z,0.00
2019-04-25T01:25:21.417Z,0.00
2019-04-25T01:26:21.418Z,0.00
2019-04-25T01:27:21.415Z,0.00
2019-04-25T01:28:21.414Z,0.00
2019-04-25T01:29:21.406Z,0.00
2019-04-25T01:30:21.406Z,0.00
2019-04-25T01:31:21.405Z,0.00
2019-04-25T01:32:21.404Z,0.00
2019-04-25T01:33:21.402Z,0.00
2019-04-25T01:34:21.398Z,0.00
2019-04-25T01:35:21.400Z,0.00
2019-04-25T01:36:21.399Z,0.00
2019-04-25T01:37:21.398Z,0.00
2019-04-25T01:38:21.394Z,0.00
2019-04-25T01:39:21.392Z,0.00
2019-04-25T01:40:21.392Z,0.00
2019-04-25T01:41:21.397Z,0.00
2019-04-25T01:42:21.391Z,0.00
2019-04-25T01:43:21.387Z,0.00
2019-04-25T01:44:21.389Z,0.00
2019-04-25T01:45:21.384Z,0.00
2019-04-25T01:46:21.383Z,0.00
2019-04-25T01:47:21.379Z,0.00
2019-04-25T01:48:21.383Z,0.00
2019-04-25T01:49:21.382Z,0.00
2019-04-25T01:50:21.377Z,0.00
2019-04-25T01:51:21.375Z,0.00
2019-04-25T01:52:21.372Z,0.00
2019-04-25T01:53:21.370Z,0.00
2019-04-25T01:54:21.370Z,0.00
2019-04-25T01:55:21.370Z,0.00
2019-04-25T01:56:21.384Z,0.00
2019-04-25T01:57:21.369Z,0.00
2019-04-25T01:58:21.365Z,0.00
2019-04-25T01:59:21.364Z,0.00
2019-04-25T02:00:21.363Z,0.00
2019-04-25T02:01:21.358Z,0.00
2019-04-25T02:02:21.360Z,0.00
2019-04-25T02:03:21.358Z,0.00
2019-04-25T02:04:23.097Z,0.00
2019-04-25T02:05:21.355Z,0.00
2019-04-25T02:06:21.351Z,0.00
2019-04-25T02:07:21.353Z,0.00
2019-04-25T02:08:21.351Z,0.00
2019-04-25T02:09:21.348Z,0.00
2019-04-25T02:10:21.348Z,0.00
2019-04-25T02:11:21.347Z,0.00
2019-04-25T02:12:21.342Z,0.00
2019-04-25T02:13:21.340Z,0.00
2019-04-25T02:14:21.338Z,0.00
2019-04-25T02:15:21.338Z,0.00
2019-04-25T02:16:21.337Z,0.00
2019-04-25T02:17:21.334Z,0.00
2019-04-25T02:18:21.332Z,0.00
2019-04-25T02:19:21.331Z,0.00
2019-04-25T02:20:21.331Z,0.00
2019-04-25T02:21:21.330Z,0.00
2019-04-25T02:22:21.328Z,0.00
2019-04-25T02:23:21.326Z,0.00
2019-04-25T02:24:21.324Z,0.00
2019-04-25T02:25:21.324Z,0.00
2019-04-25T02:26:21.321Z,0.00
2019-04-25T02:27:21.320Z,0.00
2019-04-25T02:28:21.317Z,0.00
2019-04-25T02:29:21.316Z,0.00
2019-04-25T02:30:21.317Z,0.00
2019-04-25T02:31:21.318Z,0.00
2019-04-25T02:32:21.311Z,0.00
2019-04-25T02:33:21.306Z,0.00
2019-04-25T02:34:21.315Z,0.00
2019-04-25T02:35:21.307Z,0.00
2019-04-25T02:36:21.306Z,0.00
2019-04-25T02:37:21.308Z,0.00
2019-04-25T02:38:21.315Z,0.00
2019-04-25T02:39:21.302Z,0.00
2019-04-25T02:40:21.299Z,0.00
2019-04-25T02:41:21.296Z,0.00
2019-04-25T02:42:21.295Z,0.00
2019-04-25T02:43:21.293Z,0.00
2019-04-25T02:44:21.291Z,0.00
2019-04-25T02:45:21.287Z,0.00
2019-04-25T02:46:21.290Z,0.00
2019-04-25T02:47:21.335Z,0.00
2019-04-25T02:48:21.286Z,0.00
2019-04-25T02:49:34.871Z,0.00
2019-04-25T02:50:21.286Z,0.00
2019-04-25T02:51:21.279Z,0.00
2019-04-25T02:52:21.289Z,0.00
2019-04-25T02:53:21.277Z,0.00
2019-04-25T02:54:21.294Z,0.00
2019-04-25T02:55:30.741Z,0.00
2019-04-25T02:56:31.182Z,0.00
2019-04-25T02:57:21.269Z,0.00
2019-04-25T02:58:21.287Z,0.00
2019-04-25T02:59:21.266Z,0.00
2019-04-25T03:00:21.263Z,0.00
2019-04-25T03:01:23.574Z,0.00
2019-04-25T03:02:21.260Z,0.00
2019-04-25T03:03:21.256Z,0.00
2019-04-25T03:04:21.254Z,0.00
2019-04-25T03:05:21.284Z,0.00
2019-04-25T03:06:21.253Z,0.00
2019-04-25T03:07:21.266Z,0.00
2019-04-25T03:08:21.272Z,0.00
2019-04-25T03:09:21.246Z,0.00
2019-04-25T03:10:21.252Z,0.00
2019-04-25T03:11:21.244Z,0.00
2019-04-25T03:12:30.624Z,0.00
2019-04-25T03:13:21.241Z,0.00
2019-04-25T03:14:21.237Z,0.00
2019-04-25T03:15:21.234Z,0.00
2019-04-25T03:16:21.231Z,0.00
2019-04-25T03:17:21.231Z,0.00
2019-04-25T03:18:21.230Z,0.00
2019-04-25T03:19:21.231Z,0.00
2019-04-25T03:20:21.227Z,0.00
2019-04-25T03:21:21.228Z,0.00
2019-04-25T03:22:21.235Z,0.00
2019-04-25T03:23:21.221Z,0.00
2019-04-25T03:24:21.221Z,0.00
2019-04-25T03:25:21.243Z,0.00
2019-04-25T03:26:21.217Z,0.00
2019-04-25T03:27:21.214Z,0.00
2019-04-25T03:28:21.210Z,0.00
2019-04-25T03:29:21.206Z,0.00
2019-04-25T03:30:21.208Z,0.00
2019-04-25T03:31:25.881Z,0.00
2019-04-25T03:32:21.204Z,0.00
2019-04-25T03:33:21.199Z,0.00
2019-04-25T03:34:21.217Z,0.00
2019-04-25T03:35:21.198Z,0.00
2019-04-25T03:36:21.196Z,0.00
2019-04-25T03:37:21.191Z,0.00
2019-04-25T03:38:21.190Z,0.00
2019-04-25T03:39:21.191Z,0.00
2019-04-25T03:40:21.184Z,0.00
2019-04-25T03:41:21.183Z,0.00
2019-04-25T03:42:21.186Z,0.00
2019-04-25T03:43:21.183Z,0.00
2019-04-25T03:44:21.177Z,0.00
2019-04-25T03:45:21.176Z,0.00
2019-04-25T03:46:21.176Z,0.00
2019-04-25T03:47:21.171Z,0.00
2019-04-25T03:48:21.171Z,0.00
2019-04-25T03:49:21.166Z,0.00
2019-04-25T03:50:21.164Z,0.00
2019-04-25T03:51:21.163Z,0.00
2019-04-25T03:52:21.163Z,0.00
2019-04-25T03:53:21.159Z,0.00
2019-04-25T03:54:21.159Z,0.00
2019-04-25T03:55:21.151Z,0.00
2019-04-25T03:56:21.153Z,5.63
2019-04-25T03:57:21.150Z,5.63
2019-04-25T03:58:21.147Z,5.63
2019-04-25T03:59:21.145Z,5.63
2019-04-25T04:00:21.143Z,5.63
2019-04-25T04:01:21.141Z,11.25
2019-04-25T04:02:21.141Z,11.25
2019-04-25T04:03:21.137Z,11.25
2019-04-25T04:04:21.136Z,11.25
2019-04-25T04:05:21.134Z,11.25
2019-04-25T04:06:21.131Z,11.25
2019-04-25T04:07:21.131Z,11.25
2019-04-25T04:08:21.129Z,11.25
2019-04-25T04:09:21.122Z,11.25
2019-04-25T04:10:21.326Z,16.88
2019-04-25T04:11:21.118Z,16.88
2019-04-25T04:12:21.115Z,16.88
2019-04-25T04:13:21.114Z,16.88
2019-04-25T04:14:21.113Z,16.88
2019-04-25T04:15:21.108Z,16.88
2019-04-25T04:16:21.107Z,16.88
2019-04-25T04:17:21.106Z,16.88
2019-04-25T04:18:21.100Z,16.88
2019-04-25T04:19:21.097Z,22.50
2019-04-25T04:20:21.101Z,22.50
2019-04-25T04:21:21.093Z,22.50
2019-04-25T04:22:21.094Z,22.50
2019-04-25T04:23:21.091Z,22.50
2019-04-25T04:24:21.086Z,22.50
2019-04-25T04:25:21.084Z,28.13
2019-04-25T04:26:21.082Z,28.13
2019-04-25T04:27:21.078Z,28.13
2019-04-25T04:28:21.076Z,28.13
2019-04-25T04:29:23.633Z,33.75
2019-04-25T04:30:21.073Z,33.75
2019-04-25T04:31:21.069Z,33.75
2019-04-25T04:32:21.069Z,33.75
2019-04-25T04:33:29.460Z,33.75
2019-04-25T04:34:21.064Z,33.75
2019-04-25T04:35:21.059Z,33.75
2019-04-25T04:36:21.060Z,39.38
2019-04-25T04:37:21.052Z,39.38
2019-04-25T04:38:21.049Z,39.38
2019-04-25T04:39:21.049Z,39.38
2019-04-25T04:40:21.048Z,39.38
2019-04-25T04:41:21.043Z,39.38
2019-04-25T04:42:21.040Z,45.00
2019-04-25T04:43:21.040Z,45.00
2019-04-25T04:44:21.038Z,45.00
2019-04-25T04:45:21.032Z,45.00
2019-04-25T04:46:21.030Z,50.63
2019-04-25T04:47:21.028Z,50.63
2019-04-25T04:48:21.025Z,56.25
2019-04-25T04:49:21.023Z,61.88
2019-04-25T04:50:21.025Z,101.25
2019-04-25T04:51:21.018Z,101.25
2019-04-25T04:52:23.475Z,106.88
2019-04-25T04:53:21.015Z,151.88
2019-04-25T04:54:21.009Z,84.38
2019-04-25T04:55:21.012Z,90.00
2019-04-25T04:56:21.006Z,101.25
2019-04-25T04:57:28.926Z,112.50
2019-04-25T04:58:21.000Z,90.00
2019-04-25T04:59:20.998Z,84.38
2019-04-25T05:00:20.997Z,78.75
2019-04-25T05:01:20.992Z,78.75
2019-04-25T05:02:20.988Z,95.63
2019-04-25T05:03:20.987Z,123.75
2019-04-25T05:04:20.982Z,208.13
2019-04-25T05:05:20.981Z,241.88
2019-04-25T05:06:20.978Z,236.25
2019-04-25T05:07:21.606Z,253.13
2019-04-25T05:08:20.975Z,270.00
2019-04-25T05:09:21.844Z,281.25
2019-04-25T05:10:20.969Z,286.88
2019-04-25T05:11:20.969Z,298.13
2019-04-25T05:12:21.653Z,309.38
2019-04-25T05:13:20.962Z,309.38
2019-04-25T05:14:20.962Z,315.00
2019-04-25T05:15:20.965Z,281.25
2019-04-25T05:16:21.824Z,309.38
2019-04-25T05:17:21.812Z,309.38
2019-04-25T05:18:36.184Z,309.38
2019-04-25T05:19:20.956Z,303.75
2019-04-25T05:20:20.954Z,303.75
2019-04-25T05:21:20.949Z,303.75
2019-04-25T05:22:20.954Z,309.38
2019-04-25T05:23:21.033Z,309.38
2019-04-25T05:24:20.952Z,309.38
2019-04-25T05:25:20.952Z,315.00
2019-04-25T05:26:21.066Z,320.63
2019-04-25T05:27:37.539Z,326.25
2019-04-25T05:28:21.026Z,337.50
2019-04-25T05:29:23.222Z,343.13
2019-04-25T05:30:21.208Z,348.75
2019-04-25T05:31:21.330Z,354.38
2019-04-25T05:32:21.288Z,360.00
2019-04-25T05:33:21.524Z,371.25
2019-04-25T05:34:21.702Z,376.88
2019-04-25T05:35:21.948Z,399.38
2019-04-25T05:36:21.761Z,360.00
2019-04-25T05:37:21.761Z,489.38
2019-04-25T05:38:20.957Z,556.88
2019-04-25T05:39:20.955Z,630.00
2019-04-25T05:40:20.956Z,697.50
2019-04-25T05:41:20.957Z,736.88
2019-04-25T05:42:20.957Z,748.13
2019-04-25T05:43:20.960Z,736.88
2019-04-25T05:44:20.959Z,753.75
2019-04-25T05:45:21.261Z,781.88
2019-04-25T05:46:21.099Z,849.38
2019-04-25T05:47:22.568Z,894.38
2019-04-25T05:48:21.164Z,900.00
2019-04-25T05:49:21.309Z,922.50
2019-04-25T05:50:21.846Z,900.00
2019-04-25T05:51:21.603Z,843.75
2019-04-25T05:52:21.946Z,843.75
2019-04-25T05:53:21.888Z,894.38
2019-04-25T05:54:20.980Z,956.25
2019-04-25T05:55:21.151Z,984.38
2019-04-25T05:56:20.987Z,967.50
2019-04-25T05:57:21.745Z,984.38
2019-04-25T05:58:20.988Z,1040.63
2019-04-25T05:59:21.794Z,1108.13
2019-04-25T06:00:21.004Z,1164.38
2019-04-25T06:01:21.042Z,1215.00
2019-04-25T06:02:21.569Z,1254.38
2019-04-25T06:03:21.006Z,1271.25
2019-04-25T06:04:21.068Z,1299.38
2019-04-25T06:05:21.158Z,1299.38
2019-04-25T06:06:21.111Z,1276.88
2019-04-25T06:07:21.493Z,1310.63
2019-04-25T06:08:21.369Z,1417.50
2019-04-25T06:09:21.881Z,1513.13
2019-04-25T06:10:21.630Z,1434.38
2019-04-25T06:11:21.604Z,804.38
2019-04-25T06:12:21.718Z,776.25
2019-04-25T06:13:23.247Z,371.25
2019-04-25T06:14:22.185Z,360.00
2019-04-25T06:15:22.292Z,348.75
2019-04-25T06:16:22.073Z,360.00
2019-04-25T06:17:21.432Z,478.13
2019-04-25T06:18:21.241Z,1276.88
2019-04-25T06:19:21.996Z,618.75
2019-04-25T06:20:21.512Z,354.38
2019-04-25T06:21:21.422Z,371.25
2019-04-25T06:22:21.070Z,1333.13
2019-04-25T06:23:21.075Z,393.75
2019-04-25T06:24:21.076Z,354.38
2019-04-25T06:25:22.924Z,1299.38
2019-04-25T06:26:30.007Z,343.13
2019-04-25T06:27:22.013Z,455.63
2019-04-25T06:28:21.737Z,770.63
2019-04-25T06:29:21.820Z,489.38
2019-04-25T06:30:21.129Z,1102.50
2019-04-25T06:31:21.396Z,1743.75
2019-04-25T06:32:21.530Z,365.63
2019-04-25T06:33:21.336Z,275.63
2019-04-25T06:34:21.387Z,348.75
2019-04-25T06:35:21.288Z,292.50
2019-04-25T06:36:21.179Z,292.50
2019-04-25T06:37:21.378Z,1085.63
2019-04-25T06:38:21.389Z,331.88
2019-04-25T06:39:21.998Z,354.38
2019-04-25T06:40:21.968Z,343.13
2019-04-25T06:41:21.929Z,388.13
2019-04-25T06:42:21.164Z,416.25
2019-04-25T06:43:22.025Z,416.25
2019-04-25T06:44:21.133Z,1918.13
2019-04-25T06:45:21.376Z,1895.63
2019-04-25T06:46:21.151Z,1170.00
2019-04-25T06:47:21.240Z,405.00
2019-04-25T06:48:21.253Z,1771.88
2019-04-25T06:49:21.140Z,1861.88
2019-04-25T06:50:21.909Z,1884.38
2019-04-25T06:51:21.485Z,1901.25
2019-04-25T06:52:21.601Z,1884.38
2019-04-25T06:53:21.794Z,1963.13
2019-04-25T06:54:22.019Z,2008.13
2019-04-25T06:55:22.834Z,1957.50
2019-04-25T06:56:21.908Z,1968.75
2019-04-25T06:57:22.030Z,2064.38
2019-04-25T06:58:21.431Z,2075.63
2019-04-25T06:59:23.022Z,2025.00
2019-04-25T07:00:22.444Z,1985.63
2019-04-25T07:01:22.260Z,2086.88
2019-04-25T07:02:22.836Z,2272.50
2019-04-25T07:03:22.791Z,2345.63
2019-04-25T07:04:21.188Z,2368.13
2019-04-25T07:05:30.571Z,2362.50
2019-04-25T07:06:21.197Z,2193.75
2019-04-25T07:07:21.201Z,2283.75
2019-04-25T07:08:21.203Z,1035.00
2019-04-25T07:09:21.210Z,663.75
2019-04-25T07:10:21.215Z,1164.38
2019-04-25T07:11:21.220Z,1687.50
2019-04-25T07:12:24.112Z,1046.25
2019-04-25T07:13:21.232Z,2407.50
2019-04-25T07:14:21.231Z,2565.00
2019-04-25T07:15:21.235Z,2728.13
2019-04-25T07:16:21.244Z,1305.00
2019-04-25T07:17:21.245Z,534.38
2019-04-25T07:18:21.247Z,489.38
2019-04-25T07:19:21.254Z,545.63
2019-04-25T07:20:21.268Z,517.50
2019-04-25T07:21:21.264Z,511.88
2019-04-25T07:22:21.269Z,545.63
2019-04-25T07:23:21.277Z,573.75
2019-04-25T07:24:21.283Z,765.00
2019-04-25T07:25:21.287Z,585.00
2019-04-25T07:26:21.287Z,2227.50
2019-04-25T07:27:21.293Z,635.63
2019-04-25T07:28:24.316Z,708.75
2019-04-25T07:29:21.298Z,663.75
2019-04-25T07:30:27.378Z,810.00
2019-04-25T07:31:21.307Z,1040.63
2019-04-25T07:32:21.312Z,2086.88
2019-04-25T07:33:21.317Z,2941.88
2019-04-25T07:34:21.321Z,2570.63
2019-04-25T07:35:21.322Z,2610.00
2019-04-25T07:36:21.329Z,2705.63
2019-04-25T07:37:21.333Z,2728.13
2019-04-25T07:38:21.338Z,2936.25
2019-04-25T07:39:21.347Z,2947.50
2019-04-25T07:40:21.347Z,2902.50
2019-04-25T07:41:21.348Z,2840.63
2019-04-25T07:42:21.376Z,2790.00
2019-04-25T07:43:21.362Z,2795.63
2019-04-25T07:44:33.863Z,2936.25
2019-04-25T07:45:21.372Z,3043.13
2019-04-25T07:46:21.379Z,2919.38
2019-04-25T07:47:21.399Z,2930.63
2019-04-25T07:48:22.722Z,2790.00
2019-04-25T07:49:21.395Z,2739.38
2019-04-25T07:50:21.399Z,2694.38
2019-04-25T07:51:21.407Z,2508.75
2019-04-25T07:52:21.420Z,1614.38
2019-04-25T07:53:21.418Z,1873.13
2019-04-25T07:54:21.423Z,2728.13
2019-04-25T07:55:21.434Z,2925.00
2019-04-25T07:56:21.434Z,2486.25
2019-04-25T07:57:21.450Z,1507.50
2019-04-25T07:58:21.448Z,545.63
2019-04-25T07:59:21.453Z,298.13
2019-04-25T08:00:21.459Z,326.25
2019-04-25T08:01:21.468Z,320.63
2019-04-25T08:02:23.210Z,292.50
2019-04-25T08:03:21.476Z,264.38
2019-04-25T08:04:21.484Z,286.88
2019-04-25T08:05:21.485Z,241.88
2019-04-25T08:06:22.644Z,630.00
2019-04-25T08:07:21.502Z,1513.13
2019-04-25T08:08:21.501Z,2013.75
2019-04-25T08:09:21.512Z,2109.38
2019-04-25T08:10:21.512Z,2205.00
2019-04-25T08:11:21.515Z,3307.50
2019-04-25T08:12:21.521Z,3346.88
2019-04-25T08:13:21.523Z,3330.00
2019-04-25T08:14:21.530Z,3240.00
2019-04-25T08:15:21.536Z,2300.63
2019-04-25T08:16:23.248Z,725.63
2019-04-25T08:17:21.548Z,360.00
2019-04-25T08:18:23.833Z,568.13
2019-04-25T08:19:21.555Z,1350.00
2019-04-25T08:20:21.562Z,2970.00
2019-04-25T08:21:21.564Z,3330.00
2019-04-25T08:22:21.570Z,3273.75
2019-04-25T08:23:21.577Z,3251.25
2019-04-25T08:24:21.579Z,3341.25
2019-04-25T08:25:23.389Z,3313.13
2019-04-25T08:26:21.591Z,2795.63
2019-04-25T08:27:23.090Z,2660.63
2019-04-25T08:28:21.602Z,2638.13
2019-04-25T08:29:23.060Z,1535.63
2019-04-25T08:30:21.616Z,309.38
2019-04-25T08:31:23.376Z,180.00
2019-04-25T08:32:21.627Z,174.38
2019-04-25T08:33:21.628Z,174.38
2019-04-25T08:34:21.638Z,174.38
2019-04-25T08:35:21.643Z,196.88
2019-04-25T08:36:23.262Z,315.00
2019-04-25T08:37:21.654Z,309.38
2019-04-25T08:38:23.753Z,208.13
2019-04-25T08:39:21.664Z,185.63
2019-04-25T08:40:21.669Z,180.00
2019-04-25T08:41:21.758Z,180.00
2019-04-25T08:42:21.680Z,180.00
2019-04-25T08:43:21.681Z,174.38
2019-04-25T08:44:21.684Z,174.38
2019-04-25T08:45:21.687Z,174.38
2019-04-25T08:46:21.691Z,180.00
2019-04-25T08:47:21.695Z,174.38
2019-04-25T08:48:23.418Z,168.75
2019-04-25T08:49:21.699Z,168.75
2019-04-25T08:50:28.966Z,174.38
2019-04-25T08:51:23.292Z,174.38
2019-04-25T08:52:21.708Z,174.38
2019-04-25T08:53:21.713Z,174.38
2019-04-25T08:54:23.532Z,168.75
2019-04-25T08:55:21.718Z,168.75
2019-04-25T08:56:21.721Z,168.75
2019-04-25T08:57:21.724Z,168.75
2019-04-25T08:58:21.722Z,168.75
2019-04-25T08:59:32.767Z,168.75
2019-04-25T09:00:21.731Z,168.75
2019-04-25T09:01:21.730Z,174.38
2019-04-25T09:02:23.376Z,174.38
2019-04-25T09:03:21.732Z,174.38
2019-04-25T09:04:21.739Z,174.38
2019-04-25T09:05:21.736Z,174.38
2019-04-25T09:06:21.738Z,174.38
2019-04-25T09:07:23.483Z,174.38
2019-04-25T09:08:21.747Z,174.38
2019-04-25T09:09:21.746Z,174.38
2019-04-25T09:10:21.746Z,168.75
2019-04-25T09:11:21.747Z,168.75
2019-04-25T09:12:21.749Z,168.75
2019-04-25T09:13:23.126Z,163.13
2019-04-25T09:14:21.752Z,163.13
2019-04-25T09:15:21.756Z,163.13
2019-04-25T09:16:21.755Z,163.13
2019-04-25T09:17:21.756Z,163.13
2019-04-25T09:18:21.759Z,163.13
2019-04-25T09:19:21.759Z,168.75
2019-04-25T09:20:23.518Z,174.38
2019-04-25T09:21:21.762Z,168.75
2019-04-25T09:22:21.762Z,174.38
2019-04-25T09:23:23.476Z,185.63
2019-04-25T09:24:21.767Z,191.25
2019-04-25T09:25:22.114Z,185.63
2019-04-25T09:26:21.769Z,174.38
2019-04-25T09:27:23.358Z,157.50
2019-04-25T09:28:21.774Z,151.88
2019-04-25T09:29:23.376Z,168.75
2019-04-25T09:30:21.775Z,191.25
2019-04-25T09:31:23.479Z,208.13
2019-04-25T09:32:21.773Z,219.38
2019-04-25T09:33:23.180Z,225.00
2019-04-25T09:34:21.775Z,225.00
2019-04-25T09:35:23.481Z,225.00
2019-04-25T09:36:21.785Z,225.00
2019-04-25T09:37:21.783Z,236.25
2019-04-25T09:38:21.779Z,247.50
2019-04-25T09:39:21.784Z,258.75
2019-04-25T09:40:21.785Z,264.38
2019-04-25T09:41:23.558Z,264.38
2019-04-25T09:42:21.787Z,247.50
2019-04-25T09:43:23.451Z,236.25
2019-04-25T09:44:21.787Z,213.75
2019-04-25T09:45:24.658Z,196.88
2019-04-25T09:46:21.789Z,196.88
2019-04-25T09:47:23.396Z,202.50
2019-04-25T09:48:23.127Z,219.38
2019-04-25T09:49:21.791Z,230.63
2019-04-25T09:50:21.790Z,241.88
2019-04-25T09:51:23.465Z,247.50
2019-04-25T09:52:21.799Z,247.50
2019-04-25T09:53:23.883Z,236.25
2019-04-25T09:54:23.681Z,213.75
2019-04-25T09:55:21.802Z,219.38
2019-04-25T09:56:21.803Z,213.75
2019-04-25T09:57:23.347Z,219.38
2019-04-25T09:58:21.810Z,219.38
2019-04-25T09:59:28.099Z,225.00
2019-04-25T10:00:23.225Z,225.00
2019-04-25T10:01:21.805Z,219.38
2019-04-25T10:02:21.812Z,213.75
2019-04-25T10:03:23.346Z,202.50
2019-04-25T10:04:23.092Z,196.88
2019-04-25T10:05:21.813Z,191.25
2019-04-25T10:06:23.293Z,185.63
2019-04-25T10:07:21.816Z,180.00
2019-04-25T10:08:21.818Z,180.00
2019-04-25T10:09:23.651Z,180.00
2019-04-25T10:10:21.819Z,180.00
2019-04-25T10:11:23.609Z,180.00
2019-04-25T10:12:23.128Z,180.00
2019-04-25T10:13:21.825Z,185.63
2019-04-25T10:14:21.826Z,174.38
2019-04-25T10:15:21.826Z,163.13
2019-04-25T10:16:21.831Z,174.38
2019-04-25T10:17:21.832Z,180.00
2019-04-25T10:18:23.333Z,168.75
2019-04-25T10:19:23.476Z,168.75
2019-04-25T10:20:23.191Z,174.38
2019-04-25T10:21:21.835Z,180.00
2019-04-25T10:22:21.841Z,180.00
2019-04-25T10:23:21.841Z,185.63
2019-04-25T10:24:21.843Z,208.13
2019-04-25T10:25:23.362Z,225.00
2019-04-25T10:26:21.847Z,236.25
2019-04-25T10:27:21.845Z,253.13
2019-04-25T10:28:23.345Z,275.63
2019-04-25T10:29:21.849Z,292.50
2019-04-25T10:30:25.404Z,303.75
2019-04-25T10:31:23.649Z,309.38
2019-04-25T10:32:23.664Z,309.38
2019-04-25T10:33:21.863Z,303.75
2019-04-25T10:34:21.857Z,298.13
2019-04-25T10:35:21.862Z,275.63
2019-04-25T10:36:22.993Z,275.63
2019-04-25T10:37:21.861Z,270.00
2019-04-25T10:38:21.867Z,264.38
2019-04-25T10:39:21.944Z,253.13
2019-04-25T10:40:23.400Z,241.88
2019-04-25T10:41:21.870Z,230.63
2019-04-25T10:42:21.872Z,219.38
2019-04-25T10:43:23.881Z,225.00
2019-04-25T10:44:21.877Z,236.25
2019-04-25T10:45:24.235Z,230.63
2019-04-25T10:46:21.880Z,219.38
2019-04-25T10:47:21.883Z,213.75
2019-04-25T10:48:21.886Z,202.50
2019-04-25T10:49:23.527Z,196.88
2019-04-25T10:50:23.710Z,185.63
2019-04-25T10:51:21.894Z,174.38
2019-04-25T10:52:23.366Z,163.13
2019-04-25T10:53:23.464Z,157.50
2019-04-25T10:54:21.900Z,146.25
2019-04-25T10:55:23.387Z,146.25
2019-04-25T10:56:21.904Z,140.63
2019-04-25T10:57:21.906Z,140.63
2019-04-25T10:58:21.905Z,140.63
2019-04-25T10:59:23.463Z,140.63
2019-04-25T11:00:21.911Z,140.63
2019-04-25T11:01:21.911Z,135.00
2019-04-25T11:02:23.482Z,135.00
2019-04-25T11:03:21.918Z,135.00
2019-04-25T11:04:21.919Z,135.00
2019-04-25T11:05:21.922Z,135.00
2019-04-25T11:06:23.316Z,135.00
2019-04-25T11:07:23.386Z,135.00
2019-04-25T11:08:21.943Z,135.00
2019-04-25T11:09:21.936Z,135.00
2019-04-25T11:10:23.486Z,135.00
2019-04-25T11:11:21.933Z,135.00
2019-04-25T11:12:23.351Z,135.00
2019-04-25T11:13:21.942Z,135.00
2019-04-25T11:14:23.789Z,135.00
2019-04-25T11:15:23.282Z,135.00
2019-04-25T11:16:21.942Z,135.00
2019-04-25T11:17:24.102Z,135.00
2019-04-25T11:18:21.950Z,135.00
2019-04-25T11:19:23.686Z,135.00
2019-04-25T11:20:23.186Z,135.00
2019-04-25T11:21:21.953Z,135.00
2019-04-25T11:22:21.961Z,135.00
2019-04-25T11:23:21.965Z,135.00
2019-04-25T11:24:23.511Z,135.00
2019-04-25T11:25:23.922Z,135.00
2019-04-25T11:26:21.969Z,135.00
2019-04-25T11:27:23.754Z,135.00
2019-04-25T11:28:23.392Z,135.00
2019-04-25T11:29:21.972Z,135.00
2019-04-25T11:30:21.979Z,135.00
2019-04-25T11:31:23.462Z,135.00
2019-04-25T11:32:23.720Z,135.00
2019-04-25T11:33:22.950Z,135.00
2019-04-25T11:34:22.831Z,135.00
2019-04-25T11:35:21.992Z,135.00
2019-04-25T11:36:21.997Z,135.00
2019-04-25T11:37:23.549Z,135.00
2019-04-25T11:38:23.685Z,135.00
2019-04-25T11:39:21.996Z,135.00
2019-04-25T11:40:23.429Z,135.00
2019-04-25T11:41:22.000Z,135.00
2019-04-25T11:42:23.310Z,135.00
2019-04-25T11:43:22.006Z,135.00
2019-04-25T11:44:22.009Z,135.00
2019-04-25T11:45:22.010Z,135.00
2019-04-25T11:46:22.011Z,135.00
2019-04-25T11:47:22.014Z,135.00
2019-04-25T11:48:23.742Z,135.00
2019-04-25T11:49:23.741Z,135.00
2019-04-25T11:50:22.019Z,135.00
2019-04-25T11:51:22.025Z,135.00
2019-04-25T11:52:28.406Z,129.38
2019-04-25T11:53:24.747Z,129.38
2019-04-25T11:54:22.032Z,135.00
2019-04-25T11:55:23.775Z,135.00
2019-04-25T11:56:22.039Z,135.00
2019-04-25T11:57:23.324Z,135.00
2019-04-25T11:58:23.515Z,135.00
2019-04-25T11:59:23.424Z,135.00
2019-04-25T12:00:22.867Z,135.00
2019-04-25T12:01:22.048Z,135.00
2019-04-25T12:02:23.847Z,135.00
2019-04-25T12:03:23.215Z,135.00
2019-04-25T12:04:23.832Z,135.00
2019-04-25T12:05:23.505Z,135.00
2019-04-25T12:06:22.060Z,135.00
2019-04-25T12:07:23.639Z,135.00
2019-04-25T12:08:22.065Z,135.00
2019-04-25T12:09:22.066Z,135.00
2019-04-25T12:10:22.068Z,135.00
2019-04-25T12:11:23.497Z,135.00
2019-04-25T12:12:23.656Z,135.00
2019-04-25T12:13:24.140Z,135.00
2019-04-25T12:14:23.565Z,135.00
2019-04-25T12:15:23.965Z,135.00
2019-04-25T12:16:22.087Z,135.00
2019-04-25T12:17:23.402Z,129.38
2019-04-25T12:18:22.091Z,135.00
2019-04-25T12:19:33.109Z,135.00
2019-04-25T12:20:22.095Z,135.00
2019-04-25T12:21:23.857Z,135.00
2019-04-25T12:22:23.719Z,135.00
2019-04-25T12:23:23.387Z,129.38
2019-04-25T12:24:23.793Z,135.00
2019-04-25T12:25:23.610Z,135.00
2019-04-25T12:26:22.110Z,135.00
2019-04-25T12:27:22.113Z,129.38
2019-04-25T12:28:23.547Z,129.38
2019-04-25T12:29:22.121Z,135.00
2019-04-25T12:30:36.177Z,135.00
2019-04-25T12:31:23.744Z,129.38
2019-04-25T12:32:22.126Z,129.38
2019-04-25T12:33:23.825Z,129.38
2019-04-25T12:34:22.131Z,135.00
2019-04-25T12:35:22.135Z,129.38
2019-04-25T12:36:22.135Z,129.38
2019-04-25T12:37:23.538Z,129.38
2019-04-25T12:38:22.143Z,129.38
2019-04-25T12:39:24.131Z,129.38
2019-04-25T12:40:24.032Z,129.38
2019-04-25T12:41:22.149Z,129.38
2019-04-25T12:42:22.154Z,129.38